Terminal Aerodrome Forecast
Issued by NWS Raleigh/Durham, NC

Home | Current Version | Previous Version | Text Only | Print | Product List | Glossary On
Versions: 1 2 3 4 5 6 7 8 9 10 11 12 13 14 15 16 17 18
000
FTUS42 KRAH 230539
TAFGSO
TAF
KGSO 230539Z 2306/2406 23006KT P6SM FEW150
     FM231400 23007KT P6SM SCT120
     FM231700 21010G20KT P6SM BKN060 PROB30 2323/2403 VRB15G30KT 2SM
      TSRA BKN025CB=

USA.gov is the U.S. government's official web portal to all federal, state and local government web resources and services.